Time;durP1;ratioP1;P1;durP2;ratioP2;P2;SDS_P1;SDS_P2;PMS_P1;PMS_P2;Temp;Humidity;BMP_temperature;BMP_pressure;BME280_temperature;BME280_humidity;BME280_pressure;Samples;Min_cycle;Max_cycle;Signal;HPM_P1;HPM_P2
2022/03/07 00:00:41;;;;;;;49.87;25.63;;;;;;;2.82;100.00;99366.94;5070259;28;20202;-79
2022/03/07 00:03:08;;;;;;;53.57;25.33;;;;;;;2.70;100.00;99356.72;5070083;28;20250;-78
2022/03/07 00:05:36;;;;;;;52.80;25.73;;;;;;;2.72;100.00;99362.66;5069834;28;20204;-79
2022/03/07 00:08:03;;;;;;;58.43;26.37;;;;;;;2.77;100.00;99357.56;5070290;28;20194;-80
2022/03/07 00:10:30;;;;;;;55.83;26.00;;;;;;;2.59;100.00;99335.34;5069853;28;20216;-80
2022/03/07 00:12:57;;;;;;;52.07;25.63;;;;;;;2.68;100.00;99348.16;5070487;28;20674;-80
2022/03/07 00:15:24;;;;;;;54.80;25.40;;;;;;;2.70;100.00;99343.03;5070108;28;20195;-80
2022/03/07 00:17:51;;;;;;;52.40;25.53;;;;;;;2.49;100.00;99297.75;5070172;28;20197;-78
2022/03/07 00:20:18;;;;;;;53.13;25.00;;;;;;;2.72;100.00;99329.34;5073194;28;20614;-78
2022/03/07 00:22:46;;;;;;;53.73;26.03;;;;;;;2.80;100.00;99337.06;5074025;28;20310;-79
2022/03/07 00:25:13;;;;;;;56.10;26.43;;;;;;;2.83;100.00;99362.66;5073645;28;20204;-79
2022/03/07 00:27:40;;;;;;;62.47;27.90;;;;;;;2.75;100.00;99334.47;5073419;28;20198;-79
2022/03/07 00:30:08;;;;;;;68.47;28.40;;;;;;;2.72;100.00;99337.03;5073423;28;20210;-79
2022/03/07 00:32:35;;;;;;;58.57;27.77;;;;;;;2.81;100.00;99339.63;5073223;28;20204;-79
2022/03/07 00:35:03;;;;;;;56.33;27.03;;;;;;;2.87;100.00;99349.00;5073283;28;20571;-79
2022/03/07 00:37:30;;;;;;;57.93;26.73;;;;;;;2.85;100.00;99337.91;5073145;28;20202;-79
2022/03/07 00:39:59;;;;;;;52.27;25.67;;;;;;;2.76;100.00;99323.38;5073434;28;20205;-80
2022/03/07 00:42:26;;;;;;;55.00;27.50;;;;;;;2.83;100.00;99334.47;5072987;28;20238;-80
2022/03/07 00:44:52;;;;;;;57.00;27.63;;;;;;;2.86;100.00;99337.03;5073319;28;20198;-80
2022/03/07 00:47:19;;;;;;;57.93;27.60;;;;;;;2.85;100.00;99335.34;5073132;28;20201;-78
2022/03/07 00:49:46;;;;;;;52.67;25.63;;;;;;;2.76;100.00;99320.81;5073251;28;20206;-79
2022/03/07 00:52:13;;;;;;;46.87;24.83;;;;;;;2.71;100.00;99335.34;5073264;28;20218;-80
2022/03/07 00:54:40;;;;;;;54.83;26.20;;;;;;;2.81;100.00;99344.75;5073406;28;20599;-80
2022/03/07 00:57:08;;;;;;;54.20;26.30;;;;;;;2.64;100.00;99305.44;5073014;28;20203;-79
2022/03/07 00:59:35;;;;;;;54.00;26.97;;;;;;;2.62;100.00;99303.72;5072877;28;20195;-80
2022/03/07 01:02:02;;;;;;;53.43;26.83;;;;;;;2.75;100.00;99346.44;5072733;28;20206;-79
2022/03/07 01:04:29;;;;;;;60.10;28.00;;;;;;;2.81;100.00;99338.78;5073038;28;20245;-79
2022/03/07 01:06:56;;;;;;;58.97;28.27;;;;;;;2.71;100.00;99340.44;5072857;28;20533;-79
2022/03/07 01:09:23;;;;;;;58.00;28.17;;;;;;;2.63;100.00;99339.59;5072706;28;20199;-79
2022/03/07 01:11:50;;;;;;;54.97;28.53;;;;;;;2.64;100.00;99338.75;5072672;28;20211;-78
2022/03/07 01:14:18;;;;;;;57.97;27.07;;;;;;;2.43;100.00;99295.22;5072610;28;20202;-80
2022/03/07 01:16:45;;;;;;;55.97;27.27;;;;;;;2.62;100.00;99314.84;5072876;28;20519;-80
2022/03/07 01:19:13;;;;;;;52.70;26.57;;;;;;;2.66;100.00;99343.88;5072566;28;20193;-80
2022/03/07 01:21:40;;;;;;;52.83;26.77;;;;;;;2.64;100.00;99346.44;5072367;28;20197;-79
2022/03/07 01:24:07;;;;;;;56.17;27.07;;;;;;;2.70;100.00;99346.47;5072387;28;20618;-80
2022/03/07 01:26:35;;;;;;;53.83;26.07;;;;;;;2.60;100.00;99339.59;5072464;28;20217;-79
2022/03/07 01:29:02;;;;;;;47.77;25.50;;;;;;;2.65;100.00;99343.03;5072322;28;20233;-78
2022/03/07 01:31:30;;;;;;;58.70;26.97;;;;;;;2.66;100.00;99344.75;5072468;28;20197;-77
2022/03/07 01:33:57;;;;;;;50.53;26.87;;;;;;;2.68;100.00;99331.94;5072337;28;20199;-78
2022/03/07 01:36:24;;;;;;;57.30;27.93;;;;;;;2.78;100.00;99339.63;5072411;28;20205;-78
2022/03/07 01:38:51;;;;;;;55.37;26.67;;;;;;;2.71;100.00;99340.44;5072233;28;20213;-78
2022/03/07 01:41:18;;;;;;;57.87;27.53;;;;;;;2.79;100.00;99335.34;5071957;28;20254;-78
2022/03/07 01:43:45;;;;;;;54.17;27.50;;;;;;;2.73;100.00;99331.06;5071956;28;20226;-79
2022/03/07 01:46:12;;;;;;;63.00;28.60;;;;;;;2.75;100.00;99329.34;5072434;28;20592;-79
2022/03/07 01:48:40;;;;;;;58.67;27.30;;;;;;;2.79;100.00;99330.22;5072006;28;20210;-78
2022/03/07 01:51:10;;;;;;;57.87;27.93;;;;;;;2.57;100.00;99298.63;5071964;28;20200;-79
2022/03/07 01:53:39;;;;;;;57.57;27.60;;;;;;;2.73;100.00;99320.81;5072322;28;20731;-79
2022/03/07 01:56:07;;;;;;;63.53;27.30;;;;;;;2.39;100.00;99281.53;5071912;28;20201;-79
2022/03/07 01:58:35;;;;;;;58.50;28.40;;;;;;;2.72;100.00;99319.09;5071698;28;20198;-79
2022/03/07 02:01:02;;;;;;;58.97;28.97;;;;;;;2.83;100.00;99319.94;5071979;28;20716;-79
2022/03/07 02:03:29;;;;;;;55.50;27.60;;;;;;;2.79;100.00;99314.84;5071864;28;20231;-79
2022/03/07 02:05:58;;;;;;;61.37;28.07;;;;;;;2.75;100.00;99319.09;5071779;28;20249;-78
2022/03/07 02:08:25;;;;;;;55.50;27.43;;;;;;;2.60;100.00;99284.97;5071563;28;20218;-79
2022/03/07 02:10:52;;;;;;;62.03;28.33;;;;;;;2.79;100.00;99323.38;5071312;28;20207;-79
2022/03/07 02:13:20;;;;;;;52.13;26.70;;;;;;;2.68;100.00;99302.03;5071476;28;20198;-77
2022/03/07 02:15:53;;;;;;;54.17;27.53;;;;;;;2.69;100.00;99314.00;5071743;28;20788;-77
2022/03/07 02:18:21;;;;;;;57.53;27.43;;;;;;;2.69;100.00;99305.47;5071294;28;20197;-78
2022/03/07 02:20:53;;;;;;;57.20;27.27;;;;;;;2.48;100.00;99284.09;5071460;28;20253;-78
2022/03/07 02:23:21;;;;;;;52.13;26.03;;;;;;;2.60;100.00;99326.78;5070976;28;20254;-77
2022/03/07 02:25:48;;;;;;;56.63;27.43;;;;;;;2.74;100.00;99322.53;5071253;28;20208;-77
2022/03/07 02:28:16;;;;;;;52.40;25.83;;;;;;;2.71;100.00;99326.81;5071144;28;20193;-78
2022/03/07 02:30:42;;;;;;;60.83;28.70;;;;;;;2.61;100.00;99305.44;5071160;28;20212;-78
2022/03/07 02:33:12;;;;;;;46.50;25.80;;;;;;;2.74;100.00;99319.97;5071097;28;20205;-79
2022/03/07 02:35:39;;;;;;;55.47;25.90;;;;;;;2.87;100.00;99325.94;5070830;28;20208;-79
2022/03/07 02:38:12;;;;;;;52.63;26.43;;;;;;;2.84;100.00;99319.09;5070899;28;20206;-79
2022/03/07 02:40:41;;;;;;;49.10;25.77;;;;;;;2.80;100.00;99322.53;5070824;28;20204;-78
2022/03/07 02:43:08;;;;;;;53.80;26.70;;;;;;;2.88;100.00;99325.09;5070279;28;20193;-79
2022/03/07 02:45:35;;;;;;;54.47;26.27;;;;;;;2.87;100.00;99329.34;5070895;28;20620;-79
2022/03/07 02:48:01;;;;;;;59.23;27.63;;;;;;;2.90;100.00;99331.91;5070848;28;20194;-79
2022/03/07 02:50:28;;;;;;;58.37;26.77;;;;;;;2.90;100.00;99331.06;5070812;28;20202;-78
2022/03/07 02:52:56;;;;;;;57.23;28.00;;;;;;;2.83;100.00;99330.19;5070969;28;20759;-79
2022/03/07 02:55:23;;;;;;;63.30;28.30;;;;;;;2.96;100.00;99325.06;5070781;28;20231;-79
2022/03/07 02:57:52;;;;;;;58.97;26.77;;;;;;;2.67;100.00;99309.72;5070717;28;20199;-79
2022/03/07 03:00:19;;;;;;;56.63;27.77;;;;;;;2.67;100.00;99309.72;5070496;28;20191;-79
2022/03/07 03:02:46;;;;;;;59.77;27.73;;;;;;;2.57;100.00;99293.50;5070830;28;20210;-79
2022/03/07 03:05:13;;;;;;;52.07;25.27;;;;;;;2.62;100.00;99284.09;5070348;28;20218;-79
2022/03/07 03:07:40;;;;;;;49.13;24.17;;;;;;;2.74;100.00;99331.91;5070468;28;20340;-79
2022/03/07 03:10:08;;;;;;;58.17;27.30;;;;;;;2.61;100.00;99318.25;5070567;28;20610;-78
2022/03/07 03:12:35;;;;;;;52.03;25.50;;;;;;;2.90;100.00;99337.06;5070509;28;20201;-79
2022/03/07 03:15:04;;;;;;;57.40;28.67;;;;;;;2.80;100.00;99327.66;5070583;28;20631;-79
2022/03/07 03:17:31;;;;;;;55.63;27.23;;;;;;;2.86;100.00;99337.03;5070648;28;20200;-79
2022/03/07 03:19:57;;;;;;;57.77;27.43;;;;;;;2.89;100.00;99337.91;5070706;28;20209;-78
2022/03/07 03:22:24;;;;;;;59.20;27.53;;;;;;;3.01;100.00;99343.88;5070278;28;20202;-78
2022/03/07 03:24:51;;;;;;;61.90;27.90;;;;;;;2.86;100.00;99332.78;5070435;28;20573;-78
2022/03/07 03:27:18;;;;;;;62.63;27.43;;;;;;;2.96;100.00;99338.75;5070317;28;20199;-77
2022/03/07 03:29:45;;;;;;;58.00;27.43;;;;;;;2.81;100.00;99334.50;5070294;28;20206;-78
2022/03/07 03:32:14;;;;;;;57.67;26.77;;;;;;;3.01;100.00;99338.75;5070236;28;20746;-78
2022/03/07 03:34:40;;;;;;;54.27;26.00;;;;;;;3.02;100.00;99337.88;5070713;28;20193;-78
2022/03/07 03:37:07;;;;;;;52.40;24.70;;;;;;;2.86;100.00;99337.03;5070439;28;20202;-78
2022/03/07 03:39:34;;;;;;;55.87;26.17;;;;;;;2.59;100.00;99291.81;5070497;28;20201;-79
2022/03/07 03:42:01;;;;;;;53.70;24.90;;;;;;;2.93;100.00;99339.59;5070562;28;20230;-79
2022/03/07 03:44:28;;;;;;;46.63;23.87;;;;;;;2.85;100.00;99341.31;5069867;28;20236;-77
2022/03/07 03:46:55;;;;;;;45.73;24.57;;;;;;;2.91;100.00;99343.88;5070760;28;20211;-78
2022/03/07 03:49:23;;;;;;;45.40;23.07;;;;;;;2.85;100.00;99335.34;5070463;28;20202;-78
2022/03/07 03:51:50;;;;;;;43.80;21.80;;;;;;;2.96;100.00;99343.00;5070434;28;20193;-79
2022/03/07 03:54:17;;;;;;;43.17;21.73;;;;;;;2.95;100.00;99347.28;5072046;28;20663;-80
2022/03/07 03:56:44;;;;;;;41.90;21.43;;;;;;;2.98;100.00;99346.44;5074455;28;20581;-78
2022/03/07 03:59:11;;;;;;;39.63;20.60;;;;;;;2.57;100.00;99288.38;5074316;28;20668;-79
2022/03/07 04:01:38;;;;;;;36.97;20.43;;;;;;;3.01;100.00;99341.31;5073824;28;20201;-79
2022/03/07 04:04:05;;;;;;;38.40;20.77;;;;;;;2.93;100.00;99341.31;5073926;28;20225;-77
2022/03/07 04:06:33;;;;;;;34.67;19.87;;;;;;;3.02;100.00;99341.31;5074131;28;20213;-78
2022/03/07 04:09:15;;;;;;;31.83;19.57;;;;;;;2.93;100.00;99308.81;5074080;28;20586;-80
2022/03/07 04:11:42;;;;;;;33.60;19.03;;;;;;;3.08;100.00;99338.72;5073775;28;20193;-76
2022/03/07 04:14:09;;;;;;;33.27;18.90;;;;;;;3.11;100.00;99340.44;5073950;28;20194;-77
2022/03/07 04:16:38;;;;;;;27.67;17.20;;;;;;;2.99;100.00;99322.50;5073805;28;20194;-77
2022/03/07 04:19:06;;;;;;;34.43;19.00;;;;;;;3.09;100.00;99337.88;5075371;28;20195;-77
2022/03/07 04:21:35;;;;;;;33.30;18.97;;;;;;;3.21;100.00;99344.69;5073041;28;20199;-79
2022/03/07 04:24:02;;;;;;;34.87;19.33;;;;;;;3.04;100.00;99346.44;5072546;28;20724;-79
2022/03/07 04:26:29;;;;;;;30.80;18.50;;;;;;;3.05;100.00;99341.28;5069588;28;20695;-78
2022/03/07 04:28:56;;;;;;;33.70;19.20;;;;;;;3.05;100.00;99338.72;5068620;28;20200;-79
2022/03/07 04:31:23;;;;;;;31.40;18.00;;;;;;;3.07;100.00;99342.13;5070392;28;20188;-80
2022/03/07 04:33:50;;;;;;;32.47;17.70;;;;;;;2.97;100.00;99324.22;5067349;28;20225;-79
2022/03/07 04:36:18;;;;;;;28.60;17.07;;;;;;;2.98;100.00;99326.78;5067675;28;20219;-78
2022/03/07 04:38:47;;;;;;;29.43;16.70;;;;;;;2.96;100.00;99294.31;5071616;28;20289;-77
2022/03/07 04:41:14;;;;;;;27.83;16.80;;;;;;;2.91;100.00;99300.31;5069593;28;20329;-79
2022/03/07 04:43:41;;;;;;;26.87;16.23;;;;;;;2.99;100.00;99325.06;5075845;28;20222;-78
2022/03/07 04:46:09;;;;;;;30.47;18.17;;;;;;;2.93;100.00;99318.25;5069086;28;20225;-77
2022/03/07 04:48:36;;;;;;;28.77;16.97;;;;;;;3.02;100.00;99309.69;5070466;28;20220;-76
2022/03/07 04:51:03;;;;;;;29.50;17.50;;;;;;;3.00;100.00;99296.00;5070621;28;20313;-77
2022/03/07 04:53:30;;;;;;;33.77;18.97;;;;;;;3.24;100.00;99319.03;5070026;28;20229;-75
2022/03/07 04:55:59;;;;;;;33.83;19.23;;;;;;;3.16;100.00;99288.25;5070191;28;20233;-77
2022/03/07 04:58:26;;;;;;;32.93;18.67;;;;;;;3.33;100.00;99318.16;5067943;28;20228;-74
2022/03/07 05:00:54;;;;;;;31.83;18.47;;;;;;;3.31;100.00;99302.75;5070377;28;20240;-76
2022/03/07 05:03:21;;;;;;;35.07;20.20;;;;;;;3.38;100.00;99319.00;5072294;28;20277;-78
2022/03/07 05:05:48;;;;;;;37.60;19.43;;;;;;;3.47;100.00;99314.69;5071535;28;20219;-80
2022/03/07 05:08:15;;;;;;;36.07;19.97;;;;;;;3.53;100.00;99314.66;5072689;28;20199;-79
2022/03/07 05:10:42;;;;;;;35.70;20.07;;;;;;;3.59;100.00;99329.19;5072484;28;20229;-78
2022/03/07 05:13:11;;;;;;;33.77;20.43;;;;;;;3.45;100.00;99298.44;5071972;28;20205;-78
2022/03/07 05:15:38;;;;;;;35.63;20.63;;;;;;;3.61;100.00;99330.06;5071653;28;20206;-77
2022/03/07 05:18:06;;;;;;;32.43;20.23;;;;;;;3.60;100.00;99333.47;5071874;28;20212;-78
2022/03/07 05:20:33;;;;;;;35.53;20.97;;;;;;;3.52;100.00;99338.59;5061642;28;20223;-79
2022/03/07 05:23:00;;;;;;;40.23;21.50;;;;;;;3.38;100.00;99314.72;5063858;28;20220;-79
2022/03/07 05:25:27;;;;;;;42.83;23.83;;;;;;;3.22;100.00;99284.84;5070509;28;20715;-80
2022/03/07 05:27:54;;;;;;;47.87;24.83;;;;;;;3.57;100.00;99342.03;5070069;28;20216;-79
2022/03/07 05:30:24;;;;;;;44.77;24.03;;;;;;;3.56;100.00;99347.16;5071326;28;20219;-79
2022/03/07 05:32:53;;;;;;;51.77;25.20;;;;;;;3.56;100.00;99340.31;5070367;28;20238;-78
2022/03/07 05:35:22;;;;;;;44.17;23.73;;;;;;;3.52;100.00;99351.44;5070294;28;20311;-80
2022/03/07 05:37:49;;;;;;;45.07;23.03;;;;;;;3.25;100.00;99325.88;5069294;28;20234;-75
2022/03/07 05:40:17;;;;;;;46.80;24.27;;;;;;;3.43;100.00;99336.06;5071288;28;20222;-77
2022/03/07 05:42:44;;;;;;;45.80;23.90;;;;;;;3.42;100.00;99344.63;5070301;28;20235;-76
2022/03/07 05:45:15;;;;;;;49.40;24.33;;;;;;;3.41;100.00;99352.31;5067988;28;20224;-76
2022/03/07 05:47:44;;;;;;;49.77;24.67;;;;;;;3.38;100.00;99342.09;5071019;28;20219;-77
2022/03/07 05:50:13;;;;;;;48.63;25.47;;;;;;;3.10;100.00;99300.25;5068589;28;20215;-77
2022/03/07 05:52:40;;;;;;;48.57;23.03;;;;;;;3.51;100.00;99344.59;5070945;28;20211;-76
2022/03/07 05:55:08;;;;;;;52.90;26.73;;;;;;;3.51;100.00;99326.63;5070976;28;20216;-76
2022/03/07 05:57:35;;;;;;;48.33;25.80;;;;;;;3.63;100.00;99334.28;5071378;28;20226;-77
2022/03/07 06:00:02;;;;;;;45.47;24.33;;;;;;;3.69;100.00;99333.44;5071065;28;20223;-77
2022/03/07 06:02:29;;;;;;;46.90;24.37;;;;;;;3.53;100.00;99311.25;5071413;28;20321;-76
2022/03/07 06:04:58;;;;;;;48.63;24.47;;;;;;;3.60;100.00;99313.78;5071004;28;20234;-77
2022/03/07 06:07:25;;;;;;;45.83;23.60;;;;;;;3.72;100.00;99353.09;5070350;28;20230;-77
2022/03/07 06:09:52;;;;;;;42.03;23.47;;;;;;;3.78;100.00;99343.66;5070389;28;20227;-77
2022/03/07 06:12:19;;;;;;;45.33;23.90;;;;;;;3.74;100.00;99351.34;5070900;28;20202;-77
2022/03/07 06:14:46;;;;;;;46.80;25.33;;;;;;;3.82;100.00;99344.50;5071308;28;20211;-78
2022/03/07 06:17:12;;;;;;;50.03;26.10;;;;;;;3.77;100.00;99347.06;5070691;28;20200;-77
2022/03/07 06:19:39;;;;;;;69.80;37.93;;;;;;;3.77;100.00;99351.34;5071540;28;20740;-77
2022/03/07 06:22:08;;;;;;;61.87;33.17;;;;;;;3.78;100.00;99355.63;5070825;28;20203;-77
2022/03/07 06:24:35;;;;;;;53.77;31.73;;;;;;;3.67;100.00;99352.25;5071077;28;20224;-77
2022/03/07 06:27:02;;;;;;;41.87;23.93;;;;;;;3.34;100.00;99300.19;5069986;28;20199;-77
2022/03/07 06:29:29;;;;;;;44.10;24.77;;;;;;;3.62;100.00;99327.44;5065482;28;20192;-76
2022/03/07 06:31:56;;;;;;;45.27;24.07;;;;;;;3.92;100.00;99353.88;5071258;28;20689;-76
2022/03/07 06:34:23;;;;;;;43.93;23.20;;;;;;;3.95;100.00;99352.13;5070639;28;20224;-76
2022/03/07 06:36:51;;;;;;;43.40;24.60;;;;;;;3.92;100.00;99349.59;5070836;28;20196;-76
2022/03/07 06:39:25;;;;;;;45.20;23.37;;;;;;;3.87;100.00;99347.88;5070796;28;20200;-77
2022/03/07 06:41:52;;;;;;;44.73;24.20;;;;;;;3.78;100.00;99328.25;5070692;28;20236;-77
2022/03/07 06:44:19;;;;;;;49.23;25.20;;;;;;;3.88;100.00;99344.47;5071011;28;20688;-77
2022/03/07 06:46:46;;;;;;;48.23;26.63;;;;;;;3.96;100.00;99343.56;5070749;28;20246;-76
2022/03/07 06:49:13;;;;;;;49.70;28.23;;;;;;;4.01;100.00;99340.97;5070971;28;20693;-76
2022/03/07 06:51:40;;;;;;;48.40;26.53;;;;;;;4.05;100.00;99341.81;5070630;28;20200;-75
2022/03/07 06:54:07;;;;;;;51.23;28.30;;;;;;;4.02;100.00;99345.25;5070688;28;20686;-76
2022/03/07 06:56:36;;;;;;;67.37;33.03;;;;;;;3.96;100.00;99343.56;5070402;28;20200;-78
2022/03/07 06:59:03;;;;;;;73.47;36.67;;;;;;;3.85;100.00;99345.31;5070908;28;20234;-77
2022/03/07 07:01:30;;;;;;;73.23;34.77;;;;;;;3.90;100.00;99346.16;5070407;28;20289;-77
2022/03/07 07:03:57;;;;;;;71.27;33.70;;;;;;;3.83;100.00;99343.66;5070346;28;20203;-77
2022/03/07 07:06:24;;;;;;;71.53;35.13;;;;;;;3.49;100.00;99289.03;5070755;28;20215;-75
2022/03/07 07:08:51;;;;;;;69.70;34.70;;;;;;;3.92;100.00;99341.03;5070393;28;20695;-75
2022/03/07 07:11:18;;;;;;;69.03;33.43;;;;;;;3.97;100.00;99347.81;5070540;28;20649;-75
2022/03/07 07:13:46;;;;;;;63.73;31.20;;;;;;;3.98;100.00;99351.25;5070206;28;20204;-75
2022/03/07 07:16:13;;;;;;;57.13;28.47;;;;;;;3.84;100.00;99348.75;5070533;28;20194;-76
2022/03/07 07:18:40;;;;;;;54.57;28.30;;;;;;;3.98;100.00;99351.25;5070310;28;20188;-76
2022/03/07 07:21:07;;;;;;;56.00;29.50;;;;;;;3.93;100.00;99337.59;5070087;28;20200;-77
2022/03/07 07:23:34;;;;;;;64.73;31.53;;;;;;;4.08;100.00;99352.91;5070413;28;20199;-77
2022/03/07 07:26:01;;;;;;;68.27;32.27;;;;;;;4.18;100.00;99349.41;5065353;28;20221;-77
2022/03/07 07:28:28;;;;;;;67.37;31.23;;;;;;;4.05;100.00;99322.13;5050547;28;20192;-78
2022/03/07 07:30:56;;;;;;;65.23;31.73;;;;;;;4.02;100.00;99327.28;5050690;28;20553;-76
2022/03/07 07:33:23;;;;;;;77.03;32.27;;;;;;;4.16;100.00;99346.03;5050322;28;20204;-77
2022/03/07 07:35:50;;;;;;;74.47;34.20;;;;;;;4.33;100.00;99336.50;5050186;28;20322;-77
2022/03/07 07:38:19;;;;;;;62.77;31.20;;;;;;;4.53;100.00;99332.91;5049862;28;20229;-77
2022/03/07 07:40:46;;;;;;;67.27;31.67;;;;;;;4.55;100.00;99337.19;5060931;28;20247;-76
2022/03/07 07:43:13;;;;;;;62.87;30.50;;;;;;;4.58;100.00;99336.31;5065505;28;20228;-77
2022/03/07 07:45:40;;;;;;;61.20;30.00;;;;;;;4.43;100.00;99337.28;5049255;28;20233;-77
2022/03/07 07:48:08;;;;;;;65.43;31.43;;;;;;;4.41;100.00;99328.72;5063402;28;20315;-75
2022/03/07 07:50:35;;;;;;;67.13;30.87;;;;;;;4.47;100.00;99320.97;5069341;28;20765;-76
2022/03/07 07:53:02;;;;;;;61.73;30.30;;;;;;;4.58;100.00;99334.59;5069218;28;20649;-77
2022/03/07 07:55:29;;;;;;;52.00;27.57;;;;;;;4.82;100.00;99328.41;5069476;28;20223;-77
2022/03/07 07:57:56;;;;;;;44.50;23.57;;;;;;;4.92;100.00;99332.59;5067845;28;20226;-77
2022/03/07 08:00:22;;;;;;;44.03;23.20;;;;;;;5.02;100.00;99328.22;5068012;28;20196;-76
2022/03/07 08:02:51;;;;;;;47.90;24.60;;;;;;;5.09;100.00;99333.28;5068340;28;20204;-76
2022/03/07 08:05:20;;;;;;;42.53;22.90;;;;;;;5.40;100.00;99338.16;5068654;28;20709;-76
2022/03/07 08:07:47;;;;;;;39.90;21.37;;;;;;;5.64;100.00;99344.75;5068276;28;20200;-76
2022/03/07 08:10:16;;;;;;;38.63;20.63;;;;;;;5.64;100.00;99342.16;5068314;28;20305;-78
2022/03/07 08:12:43;;;;;;;32.20;16.97;;;;;;;5.65;100.00;99349.00;5068051;28;20196;-76
2022/03/07 08:15:12;;;;;;;35.13;19.00;;;;;;;5.70;100.00;99348.09;5068142;28;20192;-78
2022/03/07 08:17:40;;;;;;;30.70;17.33;;;;;;;5.46;100.00;99349.22;5067945;28;20195;-76
2022/03/07 08:20:08;;;;;;;33.30;18.07;;;;;;;5.07;100.00;99350.47;5068040;28;20200;-75
2022/03/07 08:22:37;;;;;;;32.23;18.03;;;;;;;4.84;100.00;99342.13;5067814;28;20206;-76
2022/03/07 08:25:04;;;;;;;31.07;17.30;;;;;;;5.00;100.00;99340.25;5069002;28;20200;-77
2022/03/07 08:27:32;;;;;;;34.23;19.80;;;;;;;5.14;100.00;99342.69;5068726;28;20585;-77
2022/03/07 08:29:59;;;;;;;39.80;21.23;;;;;;;5.14;100.00;99338.41;5068010;28;20201;-77
2022/03/07 08:32:26;;;;;;;39.10;21.07;;;;;;;5.26;100.00;99334.84;5067920;28;20198;-77
2022/03/07 08:34:55;;;;;;;39.17;20.03;;;;;;;5.29;100.00;99333.13;5068192;28;20206;-77
2022/03/07 08:37:22;;;;;;;33.73;17.70;;;;;;;5.32;100.00;99343.34;5067727;28;20652;-77
2022/03/07 08:39:50;;;;;;;29.77;16.43;;;;;;;5.25;100.00;99343.44;5068317;28;20203;-77
2022/03/07 08:42:17;;;;;;;23.80;15.40;;;;;;;5.37;100.00;99351.88;5072274;28;20546;-77
2022/03/07 08:44:44;;;;;;;22.83;13.97;;;;;;;5.55;100.00;99353.41;5072023;28;20287;-77
2022/03/07 08:47:11;;;;;;;22.63;14.23;;;;;;;5.55;100.00;99357.69;5071393;28;20215;-77
2022/03/07 08:49:38;;;;;;;23.17;14.27;;;;;;;5.43;100.00;99353.53;5071957;28;20207;-76
2022/03/07 08:52:05;;;;;;;23.30;13.83;;;;;;;5.40;100.00;99348.44;5072795;28;20200;-77
2022/03/07 08:54:32;;;;;;;22.13;13.73;;;;;;;5.21;100.00;99347.75;5072742;28;20204;-77
2022/03/07 08:57:00;;;;;;;23.20;14.33;;;;;;;5.11;100.00;99341.84;5072743;28;20242;-77
2022/03/07 08:59:28;;;;;;;22.00;14.27;;;;;;;4.72;100.00;99322.50;5072556;28;20204;-77
2022/03/07 09:01:56;;;;;;;24.97;13.73;;;;;;;4.73;100.00;99297.66;5072763;28;20196;-75
2022/03/07 09:04:24;;;;;;;24.10;14.97;;;;;;;5.02;100.00;99326.50;5072505;28;20196;-75
2022/03/07 09:06:51;;;;;;;24.83;15.00;;;;;;;4.89;100.00;99350.63;5072672;28;20269;-76
2022/03/07 09:09:18;;;;;;;25.40;15.13;;;;;;;5.11;100.00;99341.00;5072677;28;20628;-75
2022/03/07 09:11:45;;;;;;;23.10;14.37;;;;;;;5.34;100.00;99345.91;5071819;28;20195;-75
2022/03/07 09:14:13;;;;;;;25.23;14.90;;;;;;;5.48;100.00;99344.06;5072575;28;20660;-75
2022/03/07 09:16:41;;;;;;;24.63;14.70;;;;;;;5.43;100.00;99350.97;5072216;28;20664;-75
2022/03/07 09:19:08;;;;;;;22.70;13.93;;;;;;;5.62;100.00;99347.34;5072059;28;20195;-75
2022/03/07 09:21:38;;;;;;;31.80;18.33;;;;;;;5.68;100.00;99346.38;5072100;28;20200;-75
2022/03/07 09:24:06;;;;;;;27.53;15.93;;;;;;;5.63;100.00;99346.47;5068992;28;20224;-75
2022/03/07 09:26:33;;;;;;;27.27;15.47;;;;;;;5.22;100.00;99318.59;5071894;28;20604;-75
2022/03/07 09:28:59;;;;;;;32.23;17.47;;;;;;;5.52;100.00;99340.59;5071617;28;20578;-75
2022/03/07 09:31:28;;;;;;;26.23;15.80;;;;;;;5.61;100.00;99349.91;5070914;28;20212;-75
2022/03/07 09:33:55;;;;;;;29.13;16.93;;;;;;;5.64;100.00;99343.03;5070565;28;20196;-75
2022/03/07 09:36:22;;;;;;;24.07;15.10;;;;;;;5.73;100.00;99345.47;5070884;28;20192;-75
2022/03/07 09:38:50;;;;;;;29.20;17.37;;;;;;;6.06;100.00;99345.94;5067486;28;20234;-76
2022/03/07 09:41:17;;;;;;;31.67;18.87;;;;;;;6.09;100.00;99348.50;5070907;28;20460;-75
2022/03/07 09:43:46;;;;;;;32.43;19.63;;;;;;;6.09;100.00;99351.06;5071482;28;20318;-74
2022/03/07 09:46:14;;;;;;;27.33;17.90;;;;;;;6.17;100.00;99347.50;5071488;28;20724;-76
2022/03/07 09:48:44;;;;;;;35.73;19.60;;;;;;;6.34;100.00;99344.69;5071337;28;20711;-75
2022/03/07 09:51:11;;;;;;;31.73;20.40;;;;;;;6.43;100.00;99341.16;5071025;28;20423;-75
2022/03/07 09:53:38;;;;;;;30.60;17.50;;;;;;;6.37;100.00;99341.22;5071100;28;20228;-75
2022/03/07 09:56:05;;;;;;;103.97;49.07;;;;;;;6.45;100.00;99334.22;5071155;28;20814;-76
2022/03/07 09:58:32;;;;;;;52.60;29.73;;;;;;;6.39;100.00;99336.91;5069966;28;20219;-76
2022/03/07 10:01:08;;;;;;;36.60;20.57;;;;;;;6.39;100.00;99334.31;5069255;28;20231;-75
2022/03/07 10:03:35;;;;;;;32.37;19.50;;;;;;;6.26;100.00;99331.06;5066251;28;20208;-74
2022/03/07 10:06:12;;;;;;;30.47;18.93;;;;;;;6.38;100.00;99335.19;5069390;28;20262;-74
2022/03/07 10:08:39;;;;;;;36.03;20.70;;;;;;;5.98;100.00;99316.88;5070420;28;20706;-76
2022/03/07 10:11:09;;;;;;;29.10;16.90;;;;;;;5.79;100.00;99327.38;5070475;28;20200;-74
2022/03/07 10:13:36;;;;;;;29.43;16.20;;;;;;;5.62;100.00;99331.03;5069852;28;20590;-74
2022/03/07 10:16:05;;;;;;;29.40;15.90;;;;;;;5.52;100.00;99320.00;5069629;28;20192;-75
2022/03/07 10:18:32;;;;;;;33.30;18.17;;;;;;;5.54;100.00;99333.66;5069489;28;20218;-75
2022/03/07 10:21:01;;;;;;;32.83;19.00;;;;;;;5.43;100.00;99332.94;5069693;28;20292;-76
2022/03/07 10:23:30;;;;;;;35.53;19.03;;;;;;;5.40;100.00;99307.25;5070399;28;20207;-74
2022/03/07 10:26:06;;;;;;;34.37;20.17;;;;;;;5.51;100.00;99326.00;5070157;28;20346;-74
2022/03/07 10:28:37;;;;;;;37.87;19.77;;;;;;;5.48;100.00;99324.31;5069537;28;20261;-74
2022/03/07 10:31:13;;;;;;;43.30;22.13;;;;;;;5.52;100.00;99320.00;5069564;28;20589;-73
2022/03/07 10:33:40;;;;;;;35.40;21.30;;;;;;;5.67;100.00;99311.22;5067136;28;20195;-74
2022/03/07 10:36:07;;;;;;;36.23;19.83;;;;;;;5.64;100.00;99314.69;5069770;28;20575;-74
2022/03/07 10:38:36;;;;;;;40.20;21.73;;;;;;;5.38;100.00;99303.84;5070182;28;20570;-74
2022/03/07 10:41:04;;;;;;;34.93;19.50;;;;;;;5.18;100.00;99270.63;5065353;28;20311;-74
2022/03/07 10:43:31;;;;;;;40.03;22.40;;;;;;;5.39;100.00;99297.84;5049963;28;20223;-75
2022/03/07 10:45:59;;;;;;;38.37;20.67;;;;;;;5.30;100.00;99275.63;5049825;28;20228;-74
2022/03/07 10:48:28;;;;;;;40.97;20.60;;;;;;;5.04;100.00;99268.19;5049986;28;20228;-74
2022/03/07 10:50:59;;;;;;;39.37;20.60;;;;;;;5.37;100.00;99284.13;5052017;28;20211;-75
2022/03/07 10:53:27;;;;;;;41.10;21.90;;;;;;;5.60;100.00;99301.88;5069529;28;20219;-74
2022/03/07 10:55:58;;;;;;;35.07;20.73;;;;;;;5.38;100.00;99294.41;5049346;28;20217;-74
2022/03/07 10:58:25;;;;;;;33.97;18.57;;;;;;;5.56;100.00;99295.03;5049818;28;20220;-74
2022/03/07 11:00:54;;;;;;;37.47;20.63;;;;;;;5.21;100.00;99243.97;5049610;28;20216;-74
2022/03/07 11:03:23;;;;;;;36.67;22.60;;;;;;;5.61;100.00;99286.41;5064250;28;20634;-75
2022/03/07 11:05:51;;;;;;;45.53;25.73;;;;;;;5.46;100.00;99271.13;5068761;28;20263;-75
2022/03/07 11:08:20;;;;;;;37.80;20.43;;;;;;;5.60;100.00;99273.56;5068748;28;20207;-78
2022/03/07 11:10:51;;;;;;;36.93;21.40;;;;;;;5.65;100.00;99282.06;5067107;28;20200;-77
2022/03/07 11:13:25;;;;;;;39.10;20.17;;;;;;;5.42;100.00;99279.75;5069587;28;20600;-79
2022/03/07 11:15:54;;;;;;;40.13;21.43;;;;;;;5.65;100.00;99272.59;5069058;28;20195;-79
2022/03/07 11:18:22;;;;;;;35.87;20.43;;;;;;;5.63;100.00;99245.19;5066888;28;20207;-79